KPCW

Erie-Ottawa International Airport

Port Clinton, Ohio, USA
METAR KPCW 182335Z AUTO 10005G12KT 10SM CLR 24/19 A2993 RMK AO2
Observed Flight Rules
Aug-18 @ 23:35 UTC (12 minutes ago) Visual Flight Rules
Wind Visibility Clouds
100° at 5 knots
 Gusting to 12 knots
10 miles
  • Clear skies
Temperatures Readings
Current 24°C / 75°F
Dewpoint 19°C / 66°F
Humidity 74%
Altimeter 29.93" Hg
Pressure 1014 hPa
Elevation 178
METAR KPCW 182335Z AUTO 10005G12KT 10SM CLR 24/19 A2993 RMK AO2
Observed Flight Rules
Aug-18 @ 23:35 UTC
(12 minutes ago)
VFR
Wind Visibility
100° at 5 knots
 Gusting to 12 knots
10 miles
Clouds
  • Clear skies
Temperature Dewpoint
24°C / 75°F 19°C / 66°F
Humidity Altimeter Pressure
74% 29.93" Hg 1014 hPa